Time;durP1;ratioP1;P1;durP2;ratioP2;P2;SDS_P1;SDS_P2;PMS_P1;PMS_P2;Temp;Humidity;BMP_temperature;BMP_pressure;BME280_temperature;BME280_humidity;BME280_pressure;Samples;Min_cycle;Max_cycle;Signal;HPM_P1;HPM_P2
2022/02/15 00:02:22;;;;;;;1.43;1.00;;;23.10;58.00;;;;;;5094796;28;20459;-82
2022/02/15 00:04:49;;;;;;;1.13;0.87;;;23.10;58.00;;;;;;5094879;28;20447;-82
2022/02/15 00:07:15;;;;;;;1.30;0.80;;;23.10;58.00;;;;;;5094731;28;20450;-82
2022/02/15 00:09:42;;;;;;;1.73;1.30;;;23.10;58.00;;;;;;5094606;28;20446;-82
2022/02/15 00:12:10;;;;;;;2.10;1.23;;;23.10;58.00;;;;;;5094087;28;20444;-82
2022/02/15 00:14:38;;;;;;;1.23;1.00;;;23.10;58.00;;;;;;5094471;28;20483;-81
2022/02/15 00:17:05;;;;;;;1.87;1.17;;;23.10;58.00;;;;;;5094213;28;20493;-81
2022/02/15 00:19:32;;;;;;;1.20;0.90;;;23.10;58.00;;;;;;5094415;28;20432;-81
2022/02/15 00:21:59;;;;;;;1.40;0.80;;;23.10;58.00;;;;;;5094346;28;20812;-81
2022/02/15 00:24:25;;;;;;;1.30;0.90;;;23.10;58.00;;;;;;5094137;28;20471;-81
2022/02/15 00:26:52;;;;;;;1.43;0.83;;;23.10;58.00;;;;;;5094421;28;20443;-82
2022/02/15 00:29:19;;;;;;;1.23;0.83;;;23.10;58.00;;;;;;5094235;28;20805;-81
2022/02/15 00:31:47;;;;;;;1.27;1.00;;;23.00;57.90;;;;;;5094062;28;20930;-81
2022/02/15 00:34:15;;;;;;;1.57;1.27;;;23.00;57.90;;;;;;5094443;28;20479;-81
2022/02/15 00:36:42;;;;;;;1.20;0.83;;;23.00;57.90;;;;;;5094177;28;20505;-82
2022/02/15 00:39:09;;;;;;;1.97;1.00;;;23.00;57.90;;;;;;5094010;28;20440;-81
2022/02/15 00:41:36;;;;;;;1.20;0.90;;;23.00;57.90;;;;;;5093942;28;20444;-82
2022/02/15 00:44:03;;;;;;;1.20;1.00;;;23.00;57.90;;;;;;5094000;28;20447;-82
2022/02/15 00:46:30;;;;;;;1.00;0.80;;;23.00;57.90;;;;;;5094023;28;20440;-82
2022/02/15 00:48:58;;;;;;;1.40;1.00;;;23.00;57.90;;;;;;5093986;28;20802;-81
2022/02/15 00:51:26;;;;;;;2.80;0.93;;;23.00;57.90;;;;;;5093689;28;20464;-82
2022/02/15 00:53:53;;;;;;;2.60;0.80;;;23.00;57.90;;;;;;5093693;28;20487;-81
2022/02/15 00:56:20;;;;;;;1.10;0.90;;;23.00;57.90;;;;;;5093679;28;20431;-82
2022/02/15 00:58:46;;;;;;;1.30;0.83;;;23.00;57.90;;;;;;5093775;28;20448;-82
2022/02/15 01:01:13;;;;;;;1.10;0.80;;;23.00;57.90;;;;;;5093613;28;20436;-82
2022/02/15 01:03:40;;;;;;;1.50;0.97;;;23.00;57.90;;;;;;5093712;28;20454;-82
2022/02/15 01:06:08;;;;;;;2.07;0.90;;;23.00;57.90;;;;;;5093866;28;20446;-81
2022/02/15 01:08:35;;;;;;;1.20;0.90;;;23.00;57.90;;;;;;5093827;28;20483;-81
2022/02/15 01:11:02;;;;;;;1.23;1.00;;;23.00;57.90;;;;;;5093487;28;20927;-81
2022/02/15 01:13:29;;;;;;;1.17;0.90;;;23.00;57.90;;;;;;5093629;28;20444;-81
2022/02/15 01:15:56;;;;;;;1.97;1.03;;;23.00;57.90;;;;;;5093473;28;20480;-81
2022/02/15 01:18:26;;;;;;;2.63;1.20;;;23.00;57.90;;;;;;5093898;28;20480;-81
2022/02/15 01:20:53;;;;;;;1.00;0.80;;;23.00;57.90;;;;;;5093538;28;20446;-82
2022/02/15 01:23:21;;;;;;;1.60;1.10;;;23.00;57.90;;;;;;5092655;28;20489;-81
2022/02/15 01:25:49;;;;;;;1.70;1.10;;;22.90;57.80;;;;;;5093268;28;20447;-81
2022/02/15 01:28:17;;;;;;;1.80;1.40;;;22.90;57.80;;;;;;5093567;28;20436;-82
2022/02/15 01:30:44;;;;;;;1.50;1.00;;;23.00;57.90;;;;;;5093253;28;20444;-80
2022/02/15 01:33:11;;;;;;;1.87;1.13;;;22.90;57.80;;;;;;5093404;28;20448;-80
2022/02/15 01:35:38;;;;;;;1.17;0.90;;;22.90;57.80;;;;;;5093305;28;20483;-81
2022/02/15 01:38:05;;;;;;;1.90;0.90;;;22.90;57.80;;;;;;5093640;28;20447;-80
2022/02/15 01:40:33;;;;;;;1.37;1.00;;;22.90;57.80;;;;;;5093262;28;20451;-80
2022/02/15 01:43:00;;;;;;;1.03;0.80;;;22.90;57.80;;;;;;5093283;28;20799;-79
2022/02/15 01:45:28;;;;;;;1.63;0.90;;;22.90;57.80;;;;;;5093209;28;20451;-80
2022/02/15 01:47:55;;;;;;;1.10;0.80;;;22.90;57.70;;;;;;5093396;28;20443;-81
2022/02/15 01:50:22;;;;;;;1.20;0.80;;;22.90;57.70;;;;;;5093277;28;20440;-80
2022/02/15 01:52:49;;;;;;;1.10;0.80;;;22.90;57.70;;;;;;5093321;28;20440;-80
2022/02/15 01:55:16;;;;;;;1.10;0.97;;;22.90;57.80;;;;;;5092993;28;20498;-80
2022/02/15 01:57:45;;;;;;;1.00;0.80;;;22.90;57.80;;;;;;5093122;28;20467;-80
2022/02/15 02:00:14;;;;;;;2.30;1.00;;;22.90;57.70;;;;;;5093218;28;20534;-80
2022/02/15 02:02:41;;;;;;;1.30;0.90;;;22.90;57.80;;;;;;5093267;28;20440;-80
2022/02/15 02:07:54;;;;;;;1.10;0.80;;;22.90;57.70;;;;;;5093281;28;20428;-80
2022/02/15 02:10:21;;;;;;;1.63;0.80;;;22.90;57.70;;;;;;5093012;28;20802;-80
2022/02/15 02:12:49;;;;;;;1.33;0.90;;;22.90;57.70;;;;;;5093001;28;20448;-80
2022/02/15 02:15:19;;;;;;;1.53;0.90;;;22.90;57.70;;;;;;5092761;28;20494;-80
2022/02/15 02:17:46;;;;;;;1.10;0.80;;;22.90;57.70;;;;;;5093045;28;20467;-80
2022/02/15 02:20:14;;;;;;;1.10;0.80;;;22.90;57.70;;;;;;5092788;28;20515;-81
2022/02/15 02:22:42;;;;;;;1.13;0.83;;;22.90;57.70;;;;;;5092917;28;20440;-80
2022/02/15 02:25:13;;;;;;;1.00;0.77;;;22.90;57.70;;;;;;5092801;28;20466;-81
2022/02/15 02:27:41;;;;;;;1.00;0.70;;;22.90;57.70;;;;;;5093008;28;20450;-80
2022/02/15 02:30:09;;;;;;;1.37;0.90;;;22.90;57.70;;;;;;5092831;28;20475;-80
2022/02/15 02:32:36;;;;;;;1.00;0.80;;;22.90;57.70;;;;;;5092828;28;20440;-80
2022/02/15 02:35:05;;;;;;;1.00;0.80;;;22.90;57.70;;;;;;5094325;28;20487;-80
2022/02/15 02:37:34;;;;;;;1.13;0.90;;;22.90;57.70;;;;;;5096644;28;20440;-80
2022/02/15 02:40:06;;;;;;;1.50;1.10;;;22.90;57.70;;;;;;5096398;28;20442;-80
2022/02/15 02:42:34;;;;;;;1.30;0.90;;;22.90;57.70;;;;;;5096232;28;20454;-80
2022/02/15 02:45:03;;;;;;;1.20;0.90;;;22.90;57.70;;;;;;5096345;28;20439;-80
2022/02/15 02:47:30;;;;;;;1.20;0.97;;;22.80;57.60;;;;;;5096191;28;20779;-79
2022/02/15 02:49:58;;;;;;;1.20;0.90;;;22.90;57.70;;;;;;5096443;28;20439;-82
2022/02/15 02:52:25;;;;;;;1.37;0.80;;;22.90;57.70;;;;;;5096008;28;20436;-82
2022/02/15 02:54:52;;;;;;;1.90;0.97;;;22.80;57.60;;;;;;5095892;28;20479;-82
2022/02/15 02:57:20;;;;;;;1.10;0.80;;;22.80;57.60;;;;;;5095988;28;20448;-82
2022/02/15 02:59:47;;;;;;;1.30;0.93;;;22.80;57.60;;;;;;5095974;28;20443;-82
2022/02/15 03:02:15;;;;;;;1.07;0.90;;;22.80;57.60;;;;;;5095906;28;20444;-82
2022/02/15 03:04:43;;;;;;;1.30;0.90;;;22.80;57.60;;;;;;5095703;28;20448;-82
2022/02/15 03:07:10;;;;;;;1.43;1.00;;;22.80;57.60;;;;;;5095826;28;20440;-82
2022/02/15 03:09:37;;;;;;;0.93;0.70;;;22.80;57.60;;;;;;5095811;28;20443;-81
2022/02/15 03:12:05;;;;;;;1.20;1.10;;;22.80;57.60;;;;;;5095765;28;20440;-82
2022/02/15 03:14:33;;;;;;;1.27;1.17;;;22.80;57.50;;;;;;5095543;28;20428;-82
2022/02/15 03:17:00;;;;;;;1.33;0.90;;;22.80;57.50;;;;;;5095356;28;20967;-81
2022/02/15 03:19:26;;;;;;;1.10;0.90;;;22.80;57.50;;;;;;5095411;28;20436;-81
2022/02/15 03:21:53;;;;;;;1.27;0.90;;;22.80;57.60;;;;;;5095592;28;20547;-82
2022/02/15 03:24:20;;;;;;;1.13;0.90;;;22.80;57.60;;;;;;5095398;28;20460;-82
2022/02/15 03:26:47;;;;;;;1.57;1.00;;;22.80;57.60;;;;;;5095333;28;20440;-82
2022/02/15 03:29:13;;;;;;;1.20;0.90;;;22.80;57.50;;;;;;5095481;28;20436;-82
2022/02/15 03:31:42;;;;;;;1.20;0.90;;;22.80;57.50;;;;;;5095408;28;20436;-82
2022/02/15 03:34:09;;;;;;;1.10;0.90;;;22.80;57.50;;;;;;5095309;28;20447;-82
2022/02/15 03:36:36;;;;;;;1.57;1.03;;;22.80;57.60;;;;;;5095144;28;20495;-81
2022/02/15 03:39:05;;;;;;;1.20;1.00;;;22.80;57.50;;;;;;5095095;28;20447;-81
2022/02/15 03:44:17;;;;;;;1.23;1.00;;;22.80;57.50;;;;;;5095265;28;20559;-82
2022/02/15 03:46:45;;;;;;;1.20;0.97;;;22.80;57.50;;;;;;5094222;28;20447;-82
2022/02/15 03:49:12;;;;;;;1.10;0.80;;;22.80;57.60;;;;;;5094964;28;20515;-81
2022/02/15 03:51:39;;;;;;;1.67;0.90;;;22.80;57.50;;;;;;5094958;28;20451;-81
2022/02/15 03:54:07;;;;;;;1.00;0.70;;;22.80;57.50;;;;;;5087418;28;20466;-81
2022/02/15 03:56:35;;;;;;;1.63;0.90;;;22.80;57.50;;;;;;5067201;28;20489;-81
2022/02/15 03:59:04;;;;;;;1.30;1.00;;;22.80;58.10;;;;;;5063868;28;20441;-80
2022/02/15 04:01:30;;;;;;;1.20;0.87;;;22.80;57.50;;;;;;5069005;28;20484;-80
2022/02/15 04:03:59;;;;;;;1.10;0.90;;;22.80;57.50;;;;;;5074425;28;20942;-80
2022/02/15 04:06:25;;;;;;;1.40;0.97;;;22.80;57.50;;;;;;5074559;28;20437;-80
2022/02/15 04:08:52;;;;;;;1.27;0.90;;;22.90;57.70;;;;;;5065525;28;20437;-79
2022/02/15 04:11:19;;;;;;;1.20;0.90;;;22.80;57.60;;;;;;5064858;28;20851;-81
2022/02/15 04:13:46;;;;;;;1.20;0.90;;;22.80;57.60;;;;;;5063332;28;20433;-81
2022/02/15 04:16:15;;;;;;;1.20;1.00;;;22.70;57.50;;;;;;5062943;28;20484;-81
2022/02/15 04:18:43;;;;;;;1.00;0.80;;;22.80;57.50;;;;;;5060466;28;20466;-81
2022/02/15 04:21:14;;;;;;;1.20;1.00;;;22.80;57.50;;;;;;5065029;28;20441;-81
2022/02/15 04:23:42;;;;;;;1.23;0.90;;;22.80;57.50;;;;;;5065274;28;20453;-81
2022/02/15 04:26:09;;;;;;;1.00;0.87;;;22.70;57.40;;;;;;5062975;28;20449;-81
2022/02/15 04:28:36;;;;;;;1.03;0.83;;;22.70;57.40;;;;;;5064193;28;20487;-81
2022/02/15 04:31:03;;;;;;;1.10;1.00;;;22.70;57.40;;;;;;5064763;28;20502;-81
2022/02/15 04:33:30;;;;;;;1.07;0.80;;;22.70;57.40;;;;;;5064771;28;20913;-81
2022/02/15 04:35:57;;;;;;;1.40;0.90;;;22.70;57.40;;;;;;5062793;28;20865;-81
2022/02/15 04:38:25;;;;;;;1.30;0.90;;;22.70;57.40;;;;;;5064978;28;20437;-81
2022/02/15 04:40:52;;;;;;;1.10;1.00;;;22.80;57.90;;;;;;5065027;28;20430;-81
2022/02/15 04:43:19;;;;;;;1.30;0.97;;;22.70;57.40;;;;;;5061035;28;20495;-81
2022/02/15 04:45:46;;;;;;;1.00;0.87;;;22.70;57.40;;;;;;5065312;28;20456;-81
2022/02/15 04:48:13;;;;;;;1.60;1.00;;;22.70;57.40;;;;;;5063217;28;20853;-81
2022/02/15 04:50:40;;;;;;;1.80;1.00;;;22.70;57.40;;;;;;5059636;28;20434;-81
2022/02/15 04:53:08;;;;;;;1.20;1.00;;;22.70;57.40;;;;;;5062406;28;20773;-81
2022/02/15 04:55:36;;;;;;;1.30;0.97;;;22.70;57.40;;;;;;5064825;28;20481;-81
2022/02/15 04:58:03;;;;;;;1.40;0.87;;;22.70;57.40;;;;;;5062894;28;20433;-80
2022/02/15 05:00:30;;;;;;;1.20;0.87;;;22.70;57.40;;;;;;5056240;28;20434;-80
2022/02/15 05:02:57;;;;;;;1.20;0.80;;;22.70;57.40;;;;;;5053557;28;20951;-80
2022/02/15 05:05:23;;;;;;;1.10;0.90;;;22.70;57.40;;;;;;5053363;28;20450;-81
2022/02/15 05:07:50;;;;;;;2.13;1.13;;;22.70;57.40;;;;;;5053393;28;20777;-81
2022/02/15 05:10:17;;;;;;;1.23;1.00;;;22.70;57.40;;;;;;5062060;28;20433;-81
2022/02/15 05:12:45;;;;;;;1.40;0.90;;;22.70;57.40;;;;;;5062181;28;20469;-81
2022/02/15 05:15:12;;;;;;;1.50;1.10;;;22.70;57.40;;;;;;5062324;28;20472;-80
2022/02/15 05:17:43;;;;;;;1.90;1.40;;;22.70;57.40;;;;;;5066901;28;20543;-80
2022/02/15 05:20:12;;;;;;;1.10;0.80;;;22.70;57.40;;;;;;5083022;28;20443;-80
2022/02/15 05:22:39;;;;;;;1.40;1.13;;;22.70;57.40;;;;;;5093624;28;21423;-81
2022/02/15 05:25:09;;;;;;;1.40;1.23;;;22.70;57.40;;;;;;5095456;28;20489;-81
2022/02/15 05:27:36;;;;;;;2.37;1.00;;;22.70;57.60;;;;;;5095971;28;20436;-81
2022/02/15 05:30:05;;;;;;;1.80;1.00;;;22.70;57.50;;;;;;5096018;28;20440;-81
2022/02/15 05:32:32;;;;;;;4.13;1.00;;;22.70;57.50;;;;;;5095824;28;20848;-79
2022/02/15 05:35:00;;;;;;;1.40;0.97;;;22.70;57.50;;;;;;5095318;28;20432;-79
2022/02/15 05:37:27;;;;;;;1.20;0.97;;;22.70;57.60;;;;;;5095971;28;20446;-79
2022/02/15 05:39:54;;;;;;;1.13;0.90;;;22.70;57.90;;;;;;5095877;28;20450;-80
2022/02/15 05:42:21;;;;;;;1.40;1.17;;;22.70;58.10;;;;;;5087615;28;20437;-81
2022/02/15 05:44:48;;;;;;;1.60;1.10;;;22.70;58.20;;;;;;5066207;28;20444;-82
2022/02/15 05:47:16;;;;;;;1.20;1.00;;;22.70;58.10;;;;;;5062434;28;20950;-81
2022/02/15 05:52:27;;;;;;;1.43;1.33;;;22.70;58.30;;;;;;5064536;28;20802;-80
2022/02/15 05:54:54;;;;;;;2.67;1.00;;;22.70;58.50;;;;;;5068953;28;20981;-80
2022/02/15 05:57:21;;;;;;;1.20;1.00;;;22.70;58.40;;;;;;5093009;28;20475;-82
2022/02/15 05:59:48;;;;;;;1.20;1.10;;;22.70;58.10;;;;;;5093200;28;20472;-81
2022/02/15 06:02:16;;;;;;;2.07;1.20;;;22.70;58.00;;;;;;5093256;28;20447;-80
2022/02/15 06:04:44;;;;;;;1.20;1.10;;;22.80;58.00;;;;;;5093020;28;20448;-80
2022/02/15 06:07:10;;;;;;;1.30;1.00;;;22.70;57.90;;;;;;5092921;28;20489;-81
2022/02/15 06:09:37;;;;;;;1.97;1.20;;;22.70;57.90;;;;;;5094393;28;20467;-80
2022/02/15 06:12:05;;;;;;;1.00;0.77;;;22.70;58.00;;;;;;5096671;28;20442;-81
2022/02/15 06:14:31;;;;;;;1.20;1.10;;;22.70;58.00;;;;;;5096324;28;20451;-81
2022/02/15 06:16:58;;;;;;;1.40;0.90;;;22.70;58.00;;;;;;5096128;28;21012;-82
2022/02/15 06:19:27;;;;;;;1.20;1.10;;;22.70;58.00;;;;;;5096490;28;20444;-81
2022/02/15 06:21:54;;;;;;;1.40;1.03;;;22.70;58.00;;;;;;5096595;28;20840;-80
2022/02/15 06:24:23;;;;;;;1.97;1.20;;;22.70;58.00;;;;;;5086417;28;20465;-82
2022/02/15 06:26:50;;;;;;;2.33;0.93;;;22.70;58.20;;;;;;5075379;28;20441;-83
2022/02/15 06:29:17;;;;;;;1.50;1.03;;;22.80;58.20;;;;;;5074185;28;20506;-83
2022/02/15 06:31:44;;;;;;;1.00;0.90;;;22.80;58.20;;;;;;5070625;28;20432;-83
2022/02/15 06:34:11;;;;;;;1.63;1.20;;;22.80;58.30;;;;;;5069479;28;20438;-84
2022/02/15 06:36:39;;;;;;;1.00;0.80;;;22.80;58.40;;;;;;5072565;28;20480;-83
2022/02/15 06:39:09;;;;;;;1.60;1.10;;;22.80;58.40;;;;;;5065195;28;20438;-83
2022/02/15 06:41:37;;;;;;;1.60;1.00;;;22.80;58.40;;;;;;5070435;28;20494;-82
2022/02/15 06:44:04;;;;;;;2.80;1.17;;;22.70;58.50;;;;;;5073386;28;20523;-84
2022/02/15 06:46:31;;;;;;;1.53;1.00;;;22.70;58.40;;;;;;5075880;28;20507;-81
2022/02/15 06:48:58;;;;;;;1.93;1.13;;;22.80;58.40;;;;;;5074977;28;20432;-81
2022/02/15 06:51:24;;;;;;;2.13;1.00;;;22.70;58.40;;;;;;5075766;28;20433;-80
2022/02/15 06:53:53;;;;;;;1.57;0.90;;;22.70;58.60;;;;;;5075612;28;20472;-80
2022/02/15 06:56:19;;;;;;;1.80;1.20;;;22.70;58.40;;;;;;5075590;28;21050;-81
2022/02/15 06:58:46;;;;;;;1.17;0.90;;;22.70;58.20;;;;;;5075889;28;20440;-81
2022/02/15 07:01:13;;;;;;;1.20;1.00;;;22.80;58.30;;;;;;5075504;28;20483;-81
2022/02/15 07:03:40;;;;;;;1.30;1.10;;;22.70;58.50;;;;;;5075716;28;20445;-81
2022/02/15 07:06:08;;;;;;;1.33;0.93;;;22.70;58.50;;;;;;5076008;28;20441;-82
2022/02/15 07:08:35;;;;;;;1.27;1.17;;;22.70;58.50;;;;;;5075957;28;20441;-81
2022/02/15 07:11:03;;;;;;;1.20;0.90;;;22.70;58.50;;;;;;5075851;28;20812;-80
2022/02/15 07:13:30;;;;;;;1.10;1.00;;;22.70;58.50;;;;;;5075871;28;20441;-81
2022/02/15 07:15:57;;;;;;;1.67;1.07;;;22.70;58.60;;;;;;5075298;28;20487;-81
2022/02/15 07:18:26;;;;;;;1.40;1.10;;;22.70;58.60;;;;;;5075043;28;20484;-83
2022/02/15 07:20:52;;;;;;;1.27;0.90;;;22.70;58.60;;;;;;5074200;28;20479;-81
2022/02/15 07:23:19;;;;;;;1.67;1.10;;;22.70;58.50;;;;;;5075227;28;20557;-81
2022/02/15 07:25:46;;;;;;;2.10;1.30;;;22.70;58.50;;;;;;5075266;28;20441;-81
2022/02/15 07:28:15;;;;;;;1.67;1.03;;;22.70;58.60;;;;;;5075256;28;20444;-81
2022/02/15 07:30:41;;;;;;;17.20;1.57;;;22.80;58.50;;;;;;5075243;28;20453;-81
2022/02/15 07:33:08;;;;;;;1.10;0.97;;;22.80;58.50;;;;;;5073837;28;20441;-81
2022/02/15 07:35:35;;;;;;;1.10;0.87;;;22.80;58.40;;;;;;5073916;28;20536;-81
2022/02/15 07:38:02;;;;;;;1.10;1.00;;;22.70;58.30;;;;;;5073905;28;20440;-81
2022/02/15 07:40:29;;;;;;;1.10;1.00;;;22.80;58.40;;;;;;5074115;28;20452;-81
2022/02/15 07:42:56;;;;;;;1.40;1.30;;;22.70;58.40;;;;;;5074549;28;20768;-81
2022/02/15 07:45:24;;;;;;;1.80;1.10;;;22.70;58.50;;;;;;5074607;28;20437;-80
2022/02/15 07:47:53;;;;;;;1.30;1.00;;;22.70;58.50;;;;;;5074533;28;20436;-80
2022/02/15 07:50:21;;;;;;;1.40;1.10;;;22.70;58.60;;;;;;5074701;28;20437;-81
2022/02/15 07:52:50;;;;;;;1.40;0.90;;;22.80;58.60;;;;;;5073902;28;20455;-81
2022/02/15 07:55:18;;;;;;;1.50;1.00;;;22.70;58.50;;;;;;5072582;28;20452;-81
2022/02/15 07:57:45;;;;;;;1.40;1.00;;;22.90;58.60;;;;;;5073347;28;20481;-81
2022/02/15 08:00:18;;;;;;;1.20;1.00;;;22.70;58.50;;;;;;5073788;28;20536;-81
2022/02/15 08:02:46;;;;;;;1.83;1.00;;;22.80;58.60;;;;;;5073851;28;20468;-81
2022/02/15 08:05:13;;;;;;;1.70;1.00;;;22.70;58.50;;;;;;5073984;28;20441;-81
2022/02/15 08:07:39;;;;;;;2.80;1.00;;;22.70;58.50;;;;;;5074020;28;20494;-81
2022/02/15 08:10:07;;;;;;;2.03;1.23;;;22.70;58.40;;;;;;5074498;28;20507;-81
2022/02/15 08:12:35;;;;;;;1.03;0.83;;;22.70;58.40;;;;;;5074184;28;20444;-81
2022/02/15 08:15:02;;;;;;;1.40;0.90;;;22.70;58.40;;;;;;5074344;28;20449;-81
2022/02/15 08:17:29;;;;;;;1.30;1.17;;;22.80;58.30;;;;;;5072811;28;20488;-82
2022/02/15 08:19:57;;;;;;;1.80;1.07;;;22.70;58.30;;;;;;5074062;28;20487;-83
2022/02/15 08:22:24;;;;;;;2.30;0.90;;;22.80;58.30;;;;;;5074242;28;20877;-82
2022/02/15 08:24:51;;;;;;;1.10;0.90;;;22.70;58.20;;;;;;5074145;28;20487;-82
2022/02/15 08:27:18;;;;;;;2.00;0.80;;;22.70;58.20;;;;;;5074024;28;20441;-81
2022/02/15 08:29:45;;;;;;;1.10;0.90;;;22.70;58.10;;;;;;5072891;28;20449;-82
2022/02/15 08:32:12;;;;;;;1.20;0.90;;;22.70;58.20;;;;;;5072719;28;20510;-81
2022/02/15 08:34:39;;;;;;;1.50;1.03;;;22.80;58.20;;;;;;5072292;28;20506;-81
2022/02/15 08:37:07;;;;;;;1.00;0.80;;;22.80;58.20;;;;;;5072583;28;20492;-81
2022/02/15 08:39:34;;;;;;;1.27;1.17;;;22.80;58.20;;;;;;5073538;28;20452;-81
2022/02/15 08:42:04;;;;;;;5.23;1.00;;;22.80;58.20;;;;;;5072622;28;21143;-81
2022/02/15 08:44:32;;;;;;;2.83;1.10;;;22.80;58.20;;;;;;5073197;28;20445;-81
2022/02/15 08:46:58;;;;;;;1.70;1.10;;;22.80;58.20;;;;;;5073396;28;20958;-81
2022/02/15 08:49:26;;;;;;;9.53;1.60;;;22.90;58.30;;;;;;5073892;28;20440;-82
2022/02/15 08:51:53;;;;;;;6.20;1.30;;;22.80;58.20;;;;;;5073659;28;20996;-81
2022/02/15 08:54:21;;;;;;;2.00;1.30;;;22.80;58.20;;;;;;5073516;28;20465;-81
2022/02/15 08:56:48;;;;;;;3.00;1.37;;;22.80;58.10;;;;;;5073511;28;20476;-82
2022/02/15 08:59:15;;;;;;;8.43;1.37;;;22.80;58.10;;;;;;5072052;28;20441;-81
2022/02/15 09:01:42;;;;;;;6.30;1.43;;;22.80;58.10;;;;;;5072501;28;20445;-81
2022/02/15 09:04:09;;;;;;;4.40;1.20;;;22.80;58.10;;;;;;5072814;28;20444;-81
2022/02/15 09:06:36;;;;;;;11.23;1.70;;;22.80;58.10;;;;;;5072967;28;20954;-81
2022/02/15 09:09:04;;;;;;;5.90;1.90;;;22.80;58.10;;;;;;5072984;28;20506;-83
2022/02/15 09:11:32;;;;;;;2.10;1.33;;;22.80;58.10;;;;;;5072872;28;20448;-82
2022/02/15 09:13:59;;;;;;;7.00;1.50;;;22.80;58.10;;;;;;5073107;28;20441;-84
2022/02/15 09:16:26;;;;;;;7.80;1.30;;;22.80;58.00;;;;;;5073128;28;20806;-84
2022/02/15 09:18:52;;;;;;;5.50;1.30;;;22.80;58.10;;;;;;5073214;28;20975;-81
2022/02/15 09:21:19;;;;;;;7.03;1.40;;;22.80;58.10;;;;;;5073239;28;21270;-81
2022/02/15 09:23:46;;;;;;;8.10;1.83;;;22.80;58.10;;;;;;5073466;28;20457;-81
2022/02/15 09:26:13;;;;;;;4.50;1.30;;;22.80;58.10;;;;;;5073439;28;20449;-81
2022/02/15 09:28:41;;;;;;;6.37;1.20;;;22.70;58.00;;;;;;5073192;28;20943;-83
2022/02/15 09:31:08;;;;;;;4.10;1.27;;;22.80;58.10;;;;;;5073168;28;20435;-81
2022/02/15 09:33:35;;;;;;;6.77;1.20;;;22.80;58.10;;;;;;5073291;28;20444;-82
2022/02/15 09:36:02;;;;;;;11.23;1.63;;;22.80;58.00;;;;;;5073583;28;20452;-81
2022/02/15 09:38:29;;;;;;;3.30;1.23;;;22.80;58.10;;;;;;5072939;28;20489;-82
2022/02/15 09:40:56;;;;;;;2.30;1.20;;;22.80;58.10;;;;;;5073098;28;20946;-83
2022/02/15 09:43:22;;;;;;;2.93;1.53;;;22.80;58.10;;;;;;5073029;28;20467;-81
2022/02/15 09:45:51;;;;;;;5.13;1.70;;;22.80;58.10;;;;;;5076572;28;20532;-81
2022/02/15 09:48:24;;;;;;;6.23;1.90;;;22.80;58.00;;;;;;5077167;28;20444;-81
2022/02/15 09:50:51;;;;;;;4.00;1.47;;;22.80;58.60;;;;;;5077261;28;20447;-83
2022/02/15 09:53:18;;;;;;;4.50;1.60;;;22.80;58.00;;;;;;5077192;28;20473;-81
2022/02/15 09:55:45;;;;;;;2.53;1.30;;;22.80;58.60;;;;;;5077252;28;20946;-81
2022/02/15 09:58:12;;;;;;;12.27;1.80;;;22.80;58.00;;;;;;5076663;28;20843;-81
2022/02/15 10:00:39;;;;;;;1.93;1.30;;;22.80;58.00;;;;;;5076497;28;20449;-81
2022/02/15 10:03:08;;;;;;;2.50;1.40;;;22.80;58.20;;;;;;5076272;28;21001;-83
2022/02/15 10:05:35;;;;;;;3.50;1.40;;;22.80;58.10;;;;;;5075792;28;20451;-82
2022/02/15 10:08:02;;;;;;;5.10;1.60;;;22.80;58.00;;;;;;5076298;28;20436;-83
2022/02/15 10:10:31;;;;;;;5.70;1.40;;;22.80;58.00;;;;;;5076825;28;20437;-83
2022/02/15 10:12:59;;;;;;;6.10;1.20;;;22.80;58.00;;;;;;5076744;28;20808;-82
2022/02/15 10:15:30;;;;;;;5.00;1.80;;;22.80;58.00;;;;;;5076738;28;20440;-83
2022/02/15 10:18:07;;;;;;;12.47;2.13;;;22.80;58.00;;;;;;5076485;28;20488;-82
2022/02/15 10:20:33;;;;;;;5.13;1.50;;;22.80;58.00;;;;;;5075379;28;20523;-82
2022/02/15 10:23:18;;;;;;;3.10;1.60;;;22.80;58.00;;;;;;5075566;28;20518;-83
2022/02/15 10:25:46;;;;;;;5.40;1.60;;;22.80;57.90;;;;;;5076152;28;20452;-83
2022/02/15 10:28:15;;;;;;;2.80;1.13;;;22.80;58.00;;;;;;5076527;28;20436;-83
2022/02/15 10:30:46;;;;;;;2.93;1.20;;;22.80;58.00;;;;;;5076200;28;20539;-83
2022/02/15 10:33:14;;;;;;;4.10;1.47;;;22.80;57.90;;;;;;5076070;28;20437;-82
2022/02/15 10:35:51;;;;;;;4.60;2.03;;;22.80;57.90;;;;;;5076153;28;20441;-83
2022/02/15 10:38:26;;;;;;;4.43;1.93;;;22.80;57.90;;;;;;5076035;28;20842;-83
2022/02/15 10:40:56;;;;;;;6.40;2.00;;;22.80;57.80;;;;;;5075507;28;20428;-84
2022/02/15 10:43:23;;;;;;;3.10;1.60;;;22.80;57.80;;;;;;5076034;28;20440;-83
2022/02/15 10:45:50;;;;;;;3.23;1.23;;;22.80;57.80;;;;;;5075401;28;21001;-84
2022/02/15 10:48:28;;;;;;;8.10;1.50;;;22.80;57.80;;;;;;5075918;28;20469;-84
2022/02/15 10:50:56;;;;;;;2.93;1.30;;;22.90;57.90;;;;;;5075495;28;21014;-81
2022/02/15 10:53:23;;;;;;;3.37;1.70;;;22.80;57.90;;;;;;5075714;28;20791;-82
2022/02/15 10:55:50;;;;;;;4.60;1.50;;;22.80;58.40;;;;;;5075676;28;20441;-82
2022/02/15 10:58:18;;;;;;;4.27;1.70;;;22.80;57.90;;;;;;5075728;28;20491;-81
2022/02/15 11:00:46;;;;;;;5.87;1.60;;;22.80;58.00;;;;;;5076152;28;20798;-82
2022/02/15 11:03:15;;;;;;;6.20;1.30;;;22.90;58.10;;;;;;5075673;28;20433;-83
2022/02/15 11:05:44;;;;;;;3.27;1.50;;;22.80;57.90;;;;;;5075543;28;20441;-83
2022/02/15 11:08:12;;;;;;;6.67;1.37;;;22.80;57.80;;;;;;5075837;28;20975;-83
2022/02/15 11:10:47;;;;;;;4.37;1.40;;;22.90;57.90;;;;;;5075802;28;20437;-83
2022/02/15 11:13:15;;;;;;;2.80;1.20;;;22.90;57.90;;;;;;5075944;28;20432;-83
2022/02/15 11:15:42;;;;;;;5.93;1.57;;;22.90;57.90;;;;;;5075260;28;20447;-83
2022/02/15 11:18:12;;;;;;;2.73;1.50;;;22.90;57.80;;;;;;5074239;28;20500;-83
2022/02/15 11:20:54;;;;;;;4.40;1.40;;;22.90;57.80;;;;;;5075282;28;20444;-83
2022/02/15 11:23:23;;;;;;;3.70;1.77;;;22.90;57.80;;;;;;5075053;28;20465;-83
2022/02/15 11:25:51;;;;;;;4.20;1.40;;;22.90;57.80;;;;;;5075140;28;20441;-82
2022/02/15 11:28:20;;;;;;;1.87;1.40;;;22.90;57.80;;;;;;5075138;28;20441;-82
2022/02/15 11:30:52;;;;;;;2.07;1.23;;;22.90;57.70;;;;;;5075339;28;20437;-83
2022/02/15 11:33:24;;;;;;;3.00;1.30;;;22.90;57.70;;;;;;5075070;28;20456;-84
2022/02/15 11:35:53;;;;;;;3.23;1.30;;;23.00;57.70;;;;;;5075424;28;20448;-84
2022/02/15 11:38:20;;;;;;;1.50;1.40;;;23.00;57.70;;;;;;5074952;28;20487;-83
2022/02/15 11:41:01;;;;;;;2.60;1.30;;;23.00;57.70;;;;;;5075038;28;20448;-83
2022/02/15 11:43:28;;;;;;;2.00;1.37;;;23.10;57.70;;;;;;5075145;28;20437;-83
2022/02/15 11:45:56;;;;;;;1.87;1.57;;;23.10;57.80;;;;;;5075000;28;20810;-83
2022/02/15 11:48:34;;;;;;;4.67;1.70;;;23.10;57.70;;;;;;5074520;28;20449;-82
2022/02/15 11:51:01;;;;;;;1.87;1.20;;;23.10;57.60;;;;;;5074689;28;20467;-83
2022/02/15 11:53:29;;;;;;;2.17;1.70;;;23.10;57.60;;;;;;5074763;28;20465;-83
2022/02/15 11:55:57;;;;;;;3.00;1.57;;;23.10;57.60;;;;;;5074827;28;20453;-83
2022/02/15 11:58:24;;;;;;;1.30;1.10;;;23.10;57.60;;;;;;5074408;28;20484;-82
2022/02/15 12:00:52;;;;;;;1.50;1.40;;;23.20;57.70;;;;;;5074561;28;20947;-83
2022/02/15 12:03:20;;;;;;;1.40;1.20;;;23.10;57.60;;;;;;5074581;28;20476;-82
2022/02/15 12:05:48;;;;;;;1.43;1.33;;;23.10;57.60;;;;;;5074824;28;20441;-83
2022/02/15 12:08:21;;;;;;;2.00;1.23;;;23.00;58.10;;;;;;5073960;28;20472;-83
2022/02/15 12:10:48;;;;;;;1.60;1.27;;;23.00;57.50;;;;;;5074441;28;20429;-82
2022/02/15 12:13:17;;;;;;;2.67;1.30;;;23.00;57.50;;;;;;5074745;28;20429;-83
2022/02/15 12:15:47;;;;;;;2.20;1.30;;;23.00;57.50;;;;;;5074393;28;20966;-83
2022/02/15 12:18:14;;;;;;;2.13;1.50;;;23.10;57.60;;;;;;5073904;28;20518;-83
2022/02/15 12:20:42;;;;;;;4.03;1.67;;;23.10;57.60;;;;;;5074046;28;20449;-82
2022/02/15 12:23:09;;;;;;;1.20;1.00;;;23.10;57.60;;;;;;5074067;28;20872;-81
2022/02/15 12:25:46;;;;;;;1.77;1.33;;;23.10;57.60;;;;;;5074237;28;20437;-81
2022/02/15 12:28:14;;;;;;;1.43;1.30;;;23.10;57.60;;;;;;5074081;28;20445;-85
2022/02/15 12:30:45;;;;;;;1.60;1.10;;;23.00;57.50;;;;;;5072897;28;20532;-81
2022/02/15 12:33:12;;;;;;;1.37;1.20;;;23.10;57.60;;;;;;5073891;28;20481;-82
2022/02/15 12:35:39;;;;;;;2.57;1.40;;;23.00;57.50;;;;;;5077560;28;20464;-81
2022/02/15 12:38:06;;;;;;;2.53;1.40;;;23.10;57.70;;;;;;5077390;28;21048;-86
2022/02/15 12:40:33;;;;;;;3.03;1.13;;;23.10;57.80;;;;;;5073774;28;20443;-86
2022/02/15 12:43:00;;;;;;;3.00;1.40;;;23.20;57.80;;;;;;5073397;28;20445;-82
2022/02/15 12:45:28;;;;;;;3.50;1.60;;;23.20;57.80;;;;;;5073647;28;20469;-81
2022/02/15 12:47:56;;;;;;;1.73;1.60;;;23.20;57.90;;;;;;5073239;28;20523;-82
2022/02/15 12:50:23;;;;;;;2.07;1.60;;;23.20;57.80;;;;;;5072838;28;20445;-82
2022/02/15 12:52:53;;;;;;;2.53;1.40;;;23.20;57.80;;;;;;5072996;28;20464;-84
2022/02/15 12:55:23;;;;;;;4.20;1.90;;;23.30;57.80;;;;;;5072837;28;20441;-84
2022/02/15 12:57:51;;;;;;;2.20;1.87;;;23.30;57.90;;;;;;5073307;28;20479;-84